Main page
METAR-TAF:

METAR-TAF

Airports :

Wallis, France

Hihifo Airport

latitude: 13-14S, longitude: 176-10W, elevation: 23 m

Current weather observation

The report was made 2 hours and 23 minutes ago, at 22:00 UTC
Wind 11 kt from the Southeast, varying between East and South
Temperature 29°C
Humidity 62%
Pressure 1013 hPa
Visibility 10 km or more
Few clouds at a height of 2600 ft
Broken clouds at a height of 11000 ft

METAR: NLWW 192200Z 14011KT 100V190 9999 FEW026 BKN110 29/21 Q1013 TEMPO 3000 SHRA BKN013 FEW015CB

Time: 12:23 (00:23 UTC)

Forecast

The report was made 1 hour and 23 minutes ago, at 23:00 UTC
Forecast valid from 20 at 00 UTC to 20 at 24 UTC
Wind 12 kt from the Southeast
Visibility 10 km or more
Scattered clouds at a height of 3000 ft
Temporary
from 20 at 12 UTC to 20 at 20 UTC
rain showers

TAF: NLWW 192300Z 2000/2024 13012KT 9999 SCT030 TEMPO 2012/2020 SHRA

Weather observations and forecasts of more than 4000 airports (METAR and TAF reports).

The available stations are represented by yellow and red dots on the map.

Hover mouse over dot to see the name of the station.

Then click to see weather observations and forecasts.

To change the map : click on the green buttons with a black cross to zoom in, on the green button with a dash to zoom out, or on the green arrows for adjacent maps.


METAR-TAF: